KAUO/AUO METAR and TAF weather

Enter ICAO airport designator
Station Type Date Time Source
KAUO METAR 2024/07/12 14:56 UTC NOAA

KAUO 121456Z AUTO 00000KT 10SM CLR 30/19 A3013 RMK AO2 SLP189 T03000194 51011


Station Type Date Time Source
KAUO Decoded METAR 2024/07/12 14:56 UTC NOAA

Auburn-Opelika Airport, AL, United States (KAUO) 32-37N 085-26W
Jul 12, 2024 - 10:56 AM EDT / 2024.07.12 1456 UTC
Wind: Calm:0
Visibility: 10 mile(s):0
Sky conditions: clear
Temperature: 86.0 F (30.0 C)
Dew Point: 66.9 F (19.4 C)
Relative Humidity: 53%
Pressure (altimeter): 30.13 in. Hg (1020 hPa)
Pressure tendency: 0.03 inches (1.1 hPa) higher than three hours ago
ob: KAUO 121456Z AUTO 00000KT 10SM CLR 30/19 A3013 RMK AO2 SLP189 T03000194 51011
cycle: 15

Station Type Date Time Source
KAUO TAF UTC NOAA

Error!

Example: see airport list